Metar GG30 METAR message from awiacja.imgw.pl Metar G30 EPGD METAR EPGD 040930Z 31012KT 9999 FEW018 SCT022 18/14 Q1010 =